Time;durP1;ratioP1;P1;durP2;ratioP2;P2;SDS_P1;SDS_P2;PMS_P1;PMS_P2;Temp;Humidity;BMP_temperature;BMP_pressure;BME280_temperature;BME280_humidity;BME280_pressure;Samples;Min_cycle;Max_cycle;Signal;HPM_P1;HPM_P2
2024/03/20 00:01:24;;;;;;;13.77;5.72;;;11.90;99.90;;;;;;6171861;28;20051;-87
2024/03/20 00:04:25;;;;;;;19.13;5.65;;;11.80;99.90;;;;;;6183204;28;20579;-86
2024/03/20 00:07:26;;;;;;;15.90;5.63;;;11.80;99.90;;;;;;6162389;28;20051;-86
2024/03/20 00:10:27;;;;;;;12.35;5.15;;;11.80;99.90;;;;;;6197854;28;20090;-86
2024/03/20 00:13:27;;;;;;;15.15;5.45;;;11.80;99.90;;;;;;6190644;28;20046;-87
2024/03/20 00:16:29;;;;;;;12.80;5.05;;;11.80;99.90;;;;;;6198635;28;20501;-87
2024/03/20 00:19:30;;;;;;;16.33;5.32;;;11.70;99.90;;;;;;6199878;28;20257;-88
2024/03/20 00:22:32;;;;;;;9.50;4.50;;;11.70;99.90;;;;;;6183591;28;20051;-88
2024/03/20 00:25:33;;;;;;;18.63;4.93;;;11.70;99.90;;;;;;6199497;28;20050;-87
2024/03/20 00:28:34;;;;;;;12.65;4.70;;;11.70;99.90;;;;;;6179554;28;20114;-81
2024/03/20 00:31:35;;;;;;;11.00;4.70;;;11.70;99.90;;;;;;6163437;28;20065;-87
2024/03/20 00:34:36;;;;;;;14.38;4.63;;;11.70;99.90;;;;;;6202481;28;20062;-88
2024/03/20 00:37:36;;;;;;;9.88;4.03;;;11.70;99.90;;;;;;6180373;28;20140;-86
2024/03/20 00:40:37;;;;;;;18.05;4.72;;;11.70;99.90;;;;;;6199402;28;20042;-86
2024/03/20 00:43:38;;;;;;;15.88;4.38;;;11.70;99.90;;;;;;6168928;28;20050;-86
2024/03/20 00:46:39;;;;;;;17.25;4.90;;;11.60;99.90;;;;;;6186156;28;20057;-87
2024/03/20 00:49:40;;;;;;;13.77;4.22;;;11.70;99.90;;;;;;6202140;28;20058;-86
2024/03/20 00:52:41;;;;;;;12.32;3.90;;;11.70;99.90;;;;;;6202754;28;20077;-85
2024/03/20 00:55:42;;;;;;;16.88;4.60;;;11.70;99.90;;;;;;6201340;28;20062;-86
2024/03/20 00:58:44;;;;;;;12.40;4.18;;;11.70;99.90;;;;;;6179851;28;20116;-86
2024/03/20 01:01:45;;;;;;;11.63;3.83;;;11.70;99.90;;;;;;6181768;28;20046;-86
2024/03/20 01:04:46;;;;;;;15.80;4.32;;;11.70;99.90;;;;;;6201844;28;20064;-86
2024/03/20 01:07:47;;;;;;;12.88;4.20;;;11.70;99.90;;;;;;6202320;28;20058;-86
2024/03/20 01:10:48;;;;;;;13.35;4.68;;;11.70;99.90;;;;;;6185276;28;20077;-84
2024/03/20 01:13:49;;;;;;;9.20;3.80;;;11.70;99.90;;;;;;6173504;28;20054;-86
2024/03/20 01:16:50;;;;;;;11.50;4.57;;;11.70;99.90;;;;;;6185671;28;20062;-86
2024/03/20 01:19:50;;;;;;;17.35;4.75;;;11.70;99.90;;;;;;6162124;28;20055;-84
2024/03/20 01:22:51;;;;;;;17.00;4.43;;;11.70;99.90;;;;;;6201797;28;20100;-86
2024/03/20 01:25:52;;;;;;;13.23;4.15;;;11.70;99.90;;;;;;6198854;28;20050;-86
2024/03/20 01:28:53;;;;;;;13.07;4.45;;;11.60;99.90;;;;;;6181718;28;20569;-85
2024/03/20 01:31:53;;;;;;;16.30;4.43;;;11.50;99.90;;;;;;6160455;28;20843;-85
2024/03/20 01:34:54;;;;;;;13.73;4.18;;;11.60;99.90;;;;;;6182451;28;20066;-86
2024/03/20 01:37:55;;;;;;;11.93;4.25;;;11.50;99.90;;;;;;6184047;28;20062;-86
2024/03/20 01:40:56;;;;;;;12.95;4.43;;;11.50;99.90;;;;;;6183983;28;20054;-85
2024/03/20 01:43:57;;;;;;;14.98;4.22;;;11.50;99.90;;;;;;6165471;28;20086;-85
2024/03/20 01:46:57;;;;;;;13.50;4.50;;;11.40;99.90;;;;;;6184515;28;20050;-86
2024/03/20 01:49:58;;;;;;;18.17;4.55;;;11.40;99.90;;;;;;6182953;28;20058;-84
2024/03/20 01:52:59;;;;;;;16.55;4.78;;;11.40;99.90;;;;;;6183373;28;20054;-84
2024/03/20 01:55:59;;;;;;;14.95;4.35;;;11.40;99.90;;;;;;6166733;28;20069;-84
2024/03/20 01:59:00;;;;;;;14.43;4.38;;;11.40;99.90;;;;;;6168436;28;20054;-86
2024/03/20 02:02:01;;;;;;;15.60;4.15;;;11.40;99.90;;;;;;6166890;28;20058;-85
2024/03/20 02:05:01;;;;;;;16.08;4.20;;;11.40;99.90;;;;;;6166292;28;20054;-85
2024/03/20 02:08:02;;;;;;;10.63;3.60;;;11.40;99.90;;;;;;6185255;28;20054;-85
2024/03/20 02:11:04;;;;;;;12.15;4.18;;;11.30;99.90;;;;;;6182090;28;20058;-83
2024/03/20 02:14:05;;;;;;;11.18;3.85;;;11.30;99.90;;;;;;6182184;28;20050;-84
2024/03/20 02:17:05;;;;;;;12.38;4.50;;;11.20;99.90;;;;;;6186099;28;20422;-83
2024/03/20 02:20:07;;;;;;;12.55;3.85;;;11.10;99.90;;;;;;6182171;28;20057;-84
2024/03/20 02:23:08;;;;;;;10.02;3.85;;;11.10;99.90;;;;;;6169083;28;20410;-85
2024/03/20 02:26:09;;;;;;;12.13;3.67;;;11.00;99.90;;;;;;6182460;28;20050;-84
2024/03/20 02:29:10;;;;;;;8.18;3.60;;;11.00;99.90;;;;;;6162032;28;20046;-85
2024/03/20 02:32:11;;;;;;;8.10;3.35;;;11.00;99.90;;;;;;6183792;28;20438;-85
2024/03/20 02:35:11;;;;;;;14.82;4.28;;;10.90;99.90;;;;;;6189287;28;20072;-86
2024/03/20 02:38:12;;;;;;;11.60;3.67;;;10.90;99.90;;;;;;6219930;28;20053;-86
2024/03/20 02:41:13;;;;;;;10.80;3.40;;;10.80;99.90;;;;;;6206364;28;20089;-86
2024/03/20 02:44:14;;;;;;;13.50;4.18;;;10.70;99.90;;;;;;6180275;28;20053;-86
2024/03/20 02:47:15;;;;;;;10.80;3.28;;;10.70;99.90;;;;;;6190166;28;20046;-86
2024/03/20 02:50:16;;;;;;;12.10;3.42;;;10.70;99.90;;;;;;6167593;28;20112;-85
2024/03/20 02:53:16;;;;;;;11.68;3.47;;;10.60;99.90;;;;;;6207017;28;20763;-86
2024/03/20 02:56:17;;;;;;;9.68;3.30;;;10.60;99.90;;;;;;6185258;28;20064;-86
2024/03/20 02:59:18;;;;;;;13.02;3.63;;;10.50;99.90;;;;;;6185560;28;20516;-85
2024/03/20 03:02:19;;;;;;;11.70;3.40;;;10.50;99.90;;;;;;6205925;28;20060;-85
2024/03/20 03:05:20;;;;;;;10.20;3.38;;;10.50;99.90;;;;;;6187288;28;20053;-86
2024/03/20 03:08:21;;;;;;;13.45;3.53;;;10.50;99.90;;;;;;6205555;28;20418;-85
2024/03/20 03:11:22;;;;;;;15.90;3.50;;;10.40;99.90;;;;;;6204978;28;20065;-85
2024/03/20 03:14:23;;;;;;;10.90;3.53;;;10.40;99.90;;;;;;6203872;28;20050;-85
2024/03/20 03:17:24;;;;;;;9.52;3.28;;;10.30;99.90;;;;;;6206241;28;20108;-86
2024/03/20 03:20:26;;;;;;;9.68;3.38;;;10.40;99.90;;;;;;6182194;28;20133;-85
2024/03/20 03:23:27;;;;;;;10.10;3.63;;;10.40;99.90;;;;;;6207096;28;20395;-85
2024/03/20 03:26:28;;;;;;;15.00;4.55;;;10.40;99.90;;;;;;6188774;28;20057;-85
2024/03/20 03:29:28;;;;;;;14.77;3.85;;;10.50;99.90;;;;;;6181837;28;20053;-86
2024/03/20 03:32:29;;;;;;;13.57;3.60;;;10.50;99.90;;;;;;6209343;28;20057;-85
2024/03/20 03:35:30;;;;;;;13.43;4.28;;;10.50;99.90;;;;;;6203892;28;20061;-85
2024/03/20 03:38:31;;;;;;;13.07;4.20;;;10.50;99.90;;;;;;6188948;28;20076;-84
2024/03/20 03:41:33;;;;;;;12.15;3.67;;;10.60;99.90;;;;;;6215730;28;20058;-85
2024/03/20 03:44:34;;;;;;;14.63;3.60;;;10.60;99.90;;;;;;6190337;28;20054;-84
2024/03/20 03:47:34;;;;;;;12.13;3.55;;;10.60;99.90;;;;;;6187743;28;20076;-84
2024/03/20 03:50:35;;;;;;;10.35;3.78;;;10.60;99.90;;;;;;6166055;28;20050;-85
2024/03/20 03:53:38;;;;;;;10.43;3.45;;;10.70;99.90;;;;;;6207770;28;20060;-85
2024/03/20 03:56:39;;;;;;;11.90;3.78;;;10.70;99.90;;;;;;6207197;28;20054;-86
2024/03/20 03:59:40;;;;;;;19.33;4.57;;;10.60;99.90;;;;;;6201077;28;20575;-86
2024/03/20 04:02:41;;;;;;;15.80;4.72;;;10.70;99.90;;;;;;6210175;28;20050;-85
2024/03/20 04:05:41;;;;;;;17.35;5.50;;;10.60;99.90;;;;;;6214433;28;20131;-85
2024/03/20 04:08:42;;;;;;;14.68;5.43;;;10.60;99.90;;;;;;6194644;28;20726;-86
2024/03/20 04:11:43;;;;;;;18.05;6.60;;;10.60;99.90;;;;;;6215485;28;20060;-86
2024/03/20 04:18:10;;;;;;;15.40;5.85;;;10.60;99.90;;;;;;6136149;29;20069;-86
2024/03/20 04:21:11;;;;;;;14.98;6.22;;;10.60;99.90;;;;;;6123712;29;20055;-86
2024/03/20 04:24:12;;;;;;;18.58;6.57;;;10.60;99.90;;;;;;6137038;29;20055;-84
2024/03/20 04:27:13;;;;;;;17.90;6.70;;;10.60;99.90;;;;;;6122353;29;20059;-86
2024/03/20 04:30:15;;;;;;;20.40;7.60;;;10.70;99.90;;;;;;6107875;29;20059;-86
2024/03/20 04:33:16;;;;;;;18.55;6.80;;;10.60;99.90;;;;;;6137125;29;20058;-85
2024/03/20 04:36:17;;;;;;;19.33;7.03;;;10.60;99.90;;;;;;6138515;29;20059;-85
2024/03/20 04:39:19;;;;;;;18.73;7.57;;;10.60;99.90;;;;;;6120741;29;20399;-84
2024/03/20 04:42:19;;;;;;;18.63;7.57;;;10.50;99.90;;;;;;6136742;29;20047;-85
2024/03/20 04:45:20;;;;;;;16.00;7.45;;;10.60;99.90;;;;;;6122978;29;20055;-85
2024/03/20 04:48:21;;;;;;;15.68;6.95;;;10.60;99.90;;;;;;6137795;29;20510;-85
2024/03/20 04:51:21;;;;;;;19.90;7.22;;;10.60;99.90;;;;;;6138165;29;20059;-85
2024/03/20 04:54:22;;;;;;;14.70;7.10;;;10.60;99.90;;;;;;6136800;29;20194;-85
2024/03/20 04:57:23;;;;;;;18.73;7.40;;;10.60;99.90;;;;;;6120612;29;20485;-85
2024/03/20 05:00:23;;;;;;;17.25;7.53;;;10.60;99.90;;;;;;6126660;29;20054;-85
2024/03/20 05:03:24;;;;;;;18.25;6.65;;;10.60;99.90;;;;;;6136365;29;20054;-85
2024/03/20 05:06:25;;;;;;;19.85;7.38;;;10.60;99.90;;;;;;6138712;29;20196;-87
2024/03/20 05:09:25;;;;;;;18.80;7.35;;;10.60;99.90;;;;;;6132944;29;20171;-86
2024/03/20 05:12:26;;;;;;;17.35;7.40;;;10.60;99.90;;;;;;6135546;29;20063;-86
2024/03/20 05:15:27;;;;;;;20.52;7.88;;;10.50;99.90;;;;;;6126369;29;20051;-86
2024/03/20 05:18:28;;;;;;;15.93;7.55;;;10.50;99.90;;;;;;6154611;29;20051;-86
2024/03/20 05:21:28;;;;;;;18.48;7.50;;;10.50;99.90;;;;;;6154541;29;20094;-86
2024/03/20 05:24:29;;;;;;;20.15;7.47;;;10.50;99.90;;;;;;6125814;29;20083;-86
2024/03/20 05:27:30;;;;;;;19.00;7.20;;;10.50;99.90;;;;;;6138190;29;20059;-86
2024/03/20 05:30:31;;;;;;;20.10;7.75;;;10.40;99.90;;;;;;6119898;29;20051;-86
2024/03/20 05:33:32;;;;;;;21.33;7.82;;;10.50;99.90;;;;;;6151093;29;20465;-86
2024/03/20 05:36:33;;;;;;;18.15;7.50;;;10.40;99.90;;;;;;6156608;29;20079;-87
2024/03/20 05:39:34;;;;;;;17.83;6.88;;;10.40;99.90;;;;;;6137765;29;20050;-87
2024/03/20 05:42:36;;;;;;;19.42;6.95;;;10.40;99.90;;;;;;6152681;29;20047;-83
2024/03/20 05:45:37;;;;;;;17.95;6.30;;;10.50;99.90;;;;;;6132777;29;20505;-86
2024/03/20 05:48:37;;;;;;;16.75;6.57;;;10.50;99.90;;;;;;6142956;29;20063;-80
2024/03/20 05:51:38;;;;;;;14.65;6.32;;;10.60;99.90;;;;;;6132080;29;20126;-83
2024/03/20 05:54:39;;;;;;;13.95;6.00;;;10.50;99.90;;;;;;6147378;29;20066;-82
2024/03/20 05:57:39;;;;;;;23.23;6.47;;;10.60;99.90;;;;;;6147094;29;20058;-83
2024/03/20 06:00:40;;;;;;;18.73;6.75;;;10.50;99.90;;;;;;6137530;29;20051;-83
2024/03/20 06:03:41;;;;;;;16.30;6.10;;;10.50;99.90;;;;;;6144404;29;20051;-83
2024/03/20 06:06:42;;;;;;;14.40;6.53;;;10.50;99.90;;;;;;6147579;29;20070;-83
2024/03/20 06:09:43;;;;;;;15.10;6.50;;;10.40;99.90;;;;;;6147129;29;20055;-83
2024/03/20 06:12:44;;;;;;;13.98;6.05;;;10.40;99.90;;;;;;6130423;29;20062;-83
2024/03/20 06:15:46;;;;;;;13.63;5.70;;;10.40;99.90;;;;;;6130440;28;20062;-83
2024/03/20 06:18:47;;;;;;;13.75;5.38;;;10.30;99.90;;;;;;6146921;28;20062;-83
2024/03/20 06:21:48;;;;;;;13.65;5.40;;;10.30;99.90;;;;;;6147249;29;20113;-83
2024/03/20 06:24:49;;;;;;;15.98;5.80;;;10.30;99.90;;;;;;6143507;28;20106;-83
2024/03/20 06:27:50;;;;;;;18.63;5.55;;;10.20;99.90;;;;;;6146090;29;20134;-82
2024/03/20 06:30:53;;;;;;;12.65;5.43;;;10.20;99.90;;;;;;6125239;29;20063;-83
2024/03/20 06:33:54;;;;;;;13.23;6.13;;;10.30;99.90;;;;;;6142579;29;20506;-83
2024/03/20 06:36:55;;;;;;;12.90;5.50;;;10.30;99.90;;;;;;6146304;29;20057;-83
2024/03/20 06:39:56;;;;;;;14.40;5.65;;;10.30;99.90;;;;;;6145671;29;20434;-83
2024/03/20 06:42:59;;;;;;;11.65;5.22;;;10.30;99.90;;;;;;6129820;29;20059;-82
2024/03/20 06:46:00;;;;;;;16.60;5.68;;;10.40;99.90;;;;;;6135456;29;20459;-83
2024/03/20 06:49:02;;;;;;;16.45;6.07;;;10.40;99.90;;;;;;6145850;29;20062;-82
2024/03/20 06:52:04;;;;;;;15.25;5.78;;;10.40;99.90;;;;;;6146616;29;20062;-83
2024/03/20 06:55:06;;;;;;;12.82;6.05;;;10.50;99.90;;;;;;6146164;29;20073;-82
2024/03/20 06:58:07;;;;;;;14.13;6.40;;;10.60;99.90;;;;;;6125646;29;20046;-79
2024/03/20 07:01:08;;;;;;;14.52;6.22;;;10.60;99.90;;;;;;6130001;29;20065;-83
2024/03/20 07:04:09;;;;;;;12.80;5.35;;;10.70;99.90;;;;;;6126012;29;20106;-82
2024/03/20 07:07:11;;;;;;;13.18;5.80;;;10.70;99.90;;;;;;6129570;29;20087;-82
2024/03/20 07:10:12;;;;;;;17.25;6.13;;;10.90;99.90;;;;;;6145476;29;20059;-82
2024/03/20 07:13:13;;;;;;;15.73;6.10;;;10.90;99.90;;;;;;6119970;29;20055;-83
2024/03/20 07:16:13;;;;;;;16.27;6.40;;;11.00;99.90;;;;;;6145230;29;21121;-83
2024/03/20 07:19:14;;;;;;;11.88;5.72;;;11.10;99.90;;;;;;6144889;29;20047;-83
2024/03/20 07:22:17;;;;;;;12.88;5.53;;;11.20;99.90;;;;;;6146153;29;20061;-82
2024/03/20 07:25:18;;;;;;;13.20;5.90;;;11.20;99.90;;;;;;6133268;28;20059;-83
2024/03/20 07:28:19;;;;;;;13.35;5.70;;;11.40;99.90;;;;;;6139938;29;20065;-83
2024/03/20 07:31:20;;;;;;;16.33;6.15;;;11.50;99.90;;;;;;6145788;29;20137;-84
2024/03/20 07:34:21;;;;;;;14.10;5.45;;;11.60;99.90;;;;;;6126327;28;20126;-85
2024/03/20 07:37:22;;;;;;;17.10;5.85;;;11.70;99.90;;;;;;6130002;29;20173;-82
2024/03/20 07:40:25;;;;;;;16.70;5.85;;;11.80;99.90;;;;;;6145098;29;20047;-83
2024/03/20 07:43:26;;;;;;;12.98;5.25;;;11.90;99.90;;;;;;6134980;29;20051;-85
2024/03/20 07:46:27;;;;;;;12.05;4.75;;;12.10;99.90;;;;;;6145293;29;20470;-84
2024/03/20 07:49:28;;;;;;;13.20;5.30;;;12.40;99.90;;;;;;6147532;29;20532;-86
2024/03/20 07:52:28;;;;;;;15.48;5.00;;;12.60;99.90;;;;;;6146466;29;20044;-86
2024/03/20 07:55:29;;;;;;;14.85;5.03;;;12.70;99.90;;;;;;6146169;29;20094;-83
2024/03/20 07:58:30;;;;;;;13.48;4.63;;;13.00;99.90;;;;;;6126939;29;20444;-83
2024/03/20 08:01:31;;;;;;;12.43;4.30;;;13.10;99.90;;;;;;6144717;29;20511;-84
2024/03/20 08:04:33;;;;;;;7.88;2.80;;;13.10;99.90;;;;;;6142520;29;20051;-84
2024/03/20 08:07:33;;;;;;;8.38;3.25;;;13.20;99.90;;;;;;6146591;29;20074;-83
2024/03/20 08:10:34;;;;;;;7.70;2.85;;;13.50;99.90;;;;;;6137754;29;20562;-82
2024/03/20 08:13:35;;;;;;;9.63;2.60;;;13.60;99.90;;;;;;6111115;29;20895;-84
2024/03/20 08:16:35;;;;;;;7.28;2.33;;;13.60;95.90;;;;;;6145398;28;20059;-89
2024/03/20 08:19:36;;;;;;;12.85;3.08;;;13.40;93.80;;;;;;6133009;29;20055;-83
2024/03/20 08:22:37;;;;;;;10.25;3.28;;;13.40;98.40;;;;;;6128116;29;20062;-83
2024/03/20 08:25:38;;;;;;;9.63;3.13;;;13.40;98.90;;;;;;6143287;29;20090;-84
2024/03/20 08:28:38;;;;;;;10.93;3.50;;;13.50;96.70;;;;;;6124703;29;20047;-84
2024/03/20 08:31:39;;;;;;;7.68;2.85;;;13.50;94.20;;;;;;6144111;29;20102;-86
2024/03/20 08:34:40;;;;;;;10.27;3.17;;;13.40;96.30;;;;;;6128970;29;20047;-84
2024/03/20 08:37:41;;;;;;;10.23;3.60;;;13.50;98.20;;;;;;6145617;29;20059;-87
2024/03/20 08:40:42;;;;;;;14.68;3.45;;;13.70;96.40;;;;;;6128582;29;20059;-86
2024/03/20 08:43:44;;;;;;;9.43;3.10;;;13.70;96.40;;;;;;6099721;29;20401;-86
2024/03/20 08:46:44;;;;;;;10.43;3.20;;;13.90;93.50;;;;;;6131266;29;20089;-87
2024/03/20 08:49:45;;;;;;;10.10;2.95;;;14.00;93.20;;;;;;6129895;29;20310;-86
2024/03/20 08:52:46;;;;;;;6.93;2.75;;;14.20;94.40;;;;;;6134344;29;20063;-88
2024/03/20 08:55:47;;;;;;;9.23;3.00;;;14.30;84.20;;;;;;6112621;29;20071;-86
2024/03/20 08:58:50;;;;;;;7.82;2.63;;;14.30;75.40;;;;;;6122668;29;20118;-85
2024/03/20 09:01:50;;;;;;;9.15;3.00;;;14.50;81.50;;;;;;6132518;29;20518;-84
2024/03/20 09:04:51;;;;;;;10.13;2.90;;;14.50;74.70;;;;;;6109659;29;20059;-85
2024/03/20 09:07:52;;;;;;;9.13;2.92;;;14.70;79.60;;;;;;6132692;29;20062;-85
2024/03/20 09:10:52;;;;;;;9.45;2.72;;;14.80;68.80;;;;;;6125775;29;20064;-85
2024/03/20 09:13:53;;;;;;;6.95;2.25;;;15.00;79.60;;;;;;6105900;29;20060;-86
2024/03/20 09:16:54;;;;;;;7.43;1.90;;;15.30;72.50;;;;;;6148152;29;20094;-87
2024/03/20 09:19:56;;;;;;;5.50;2.15;;;15.30;50.30;;;;;;6109664;29;20419;-86
2024/03/20 09:22:57;;;;;;;5.88;1.70;;;15.50;60.00;;;;;;6148182;29;20510;-86
2024/03/20 09:25:58;;;;;;;7.20;1.77;;;15.70;34.80;;;;;;6140478;29;20157;-86
2024/03/20 09:28:58;;;;;;;8.93;2.33;;;15.80;22.20;;;;;;6129443;29;20481;-87
2024/03/20 09:31:59;;;;;;;7.13;2.00;;;15.80;10.60;;;;;;6132695;29;20059;-89
2024/03/20 09:34:59;;;;;;;8.93;2.60;;;15.90;20.40;;;;;;6132122;29;20055;-91
2024/03/20 09:38:00;;;;;;;6.50;1.90;;;16.10;11.00;;;;;;6154191;29;20055;-94
2024/03/20 09:41:01;;;;;;;7.20;1.88;;;16.40;1.00;;;;;;6152540;29;20043;-90
2024/03/20 09:44:02;;;;;;;8.30;2.20;;;16.50;1.00;;;;;;6106504;29;20063;-90
2024/03/20 09:47:04;;;;;;;7.28;1.88;;;16.40;1.00;;;;;;6132502;29;20055;-92
2024/03/20 09:50:06;;;;;;;10.00;2.22;;;16.60;1.00;;;;;;6141458;29;20051;-93
2024/03/20 09:53:06;;;;;;;7.05;1.70;;;17.20;1.00;;;;;;6156709;29;20178;-88
2024/03/20 09:56:09;;;;;;;2.95;1.30;;;17.60;1.00;;;;;;6139267;29;20070;-89
2024/03/20 10:06:00;;;;;;;4.97;2.00;;;17.40;1.00;;;;;;6143125;29;20078;-88
2024/03/20 10:09:00;;;;;;;6.97;1.70;;;17.40;1.00;;;;;;6137861;29;20059;-85
2024/03/20 10:12:01;;;;;;;7.18;1.80;;;17.70;1.00;;;;;;6136566;29;20059;-88
2024/03/20 10:15:01;;;;;;;5.45;1.77;;;18.30;1.00;;;;;;6116190;29;20097;-92
2024/03/20 10:18:03;;;;;;;6.38;2.10;;;19.00;1.00;;;;;;6145043;29;20055;-93
2024/03/20 10:21:04;;;;;;;8.68;1.90;;;19.20;1.00;;;;;;6144731;29;20055;-93
2024/03/20 10:24:05;;;;;;;8.43;2.13;;;19.20;1.00;;;;;;6142093;29;20527;-91
2024/03/20 10:27:08;;;;;;;6.93;2.08;;;19.20;1.00;;;;;;6126628;29;20063;-90
2024/03/20 10:30:11;;;;;;;6.85;2.13;;;18.70;1.00;;;;;;6118184;29;20067;-91
2024/03/20 10:33:12;;;;;;;6.47;2.20;;;18.40;1.00;;;;;;6139400;28;20494;-93
2024/03/20 10:36:13;;;;;;;7.57;2.25;;;18.10;1.00;;;;;;6142200;29;20109;-94
2024/03/20 10:39:17;;;;;;;6.53;2.15;;;18.10;1.00;;;;;;6134113;29;20082;-92
2024/03/20 10:42:18;;;;;;;8.77;2.15;;;18.30;1.00;;;;;;6135579;29;20101;-91
2024/03/20 10:45:19;;;;;;;8.10;2.00;;;18.40;1.00;;;;;;6114061;29;20059;-90
2024/03/20 10:48:20;;;;;;;8.48;2.30;;;18.60;1.00;;;;;;6137327;29;20053;-93
2024/03/20 10:51:21;;;;;;;6.63;2.20;;;19.20;1.00;;;;;;6134430;29;20126;-91
2024/03/20 10:54:22;;;;;;;5.15;2.05;;;19.60;1.00;;;;;;6134352;29;20043;-93
2024/03/20 10:57:23;;;;;;;5.35;2.10;;;19.60;1.00;;;;;;6138258;29;20070;-89
2024/03/20 11:00:24;;;;;;;6.13;2.00;;;19.00;1.00;;;;;;6119248;29;20051;-92
2024/03/20 11:03:25;;;;;;;7.88;2.33;;;18.70;1.00;;;;;;6134385;29;20526;-92
2024/03/20 11:06:30;;;;;;;5.85;2.03;;;18.60;1.00;;;;;;6138571;29;20059;-93
2024/03/20 11:09:31;;;;;;;8.20;2.05;;;18.50;1.00;;;;;;6150927;28;20425;-95
2024/03/20 11:12:38;;;;;;;6.57;2.20;;;18.50;1.00;;;;;;6139403;29;20450;-92
2024/03/20 11:15:39;;;;;;;8.07;2.25;;;18.50;1.00;;;;;;6140913;29;20043;-94
2024/03/20 11:18:39;;;;;;;6.38;2.30;;;18.30;1.00;;;;;;6130671;29;20141;-83
2024/03/20 11:21:40;;;;;;;9.93;3.00;;;18.40;1.00;;;;;;6181603;23;20085;-93
2024/03/20 11:24:41;;;;;;;6.22;2.33;;;19.00;1.00;;;;;;6173600;28;20055;-91
2024/03/20 11:27:42;;;;;;;13.45;2.50;;;18.90;1.00;;;;;;6186630;28;20066;-86
2024/03/20 11:30:43;;;;;;;6.28;2.38;;;18.90;1.00;;;;;;6162071;28;20429;-85
2024/03/20 11:33:44;;;;;;;11.68;2.90;;;18.70;1.00;;;;;;6177424;28;20058;-85
2024/03/20 11:36:45;;;;;;;7.60;2.30;;;18.60;1.00;;;;;;6161474;28;20055;-90
2024/03/20 11:39:46;;;;;;;7.35;2.47;;;18.60;1.00;;;;;;6162978;28;20104;-92
2024/03/20 11:42:50;;;;;;;10.23;2.67;;;18.60;1.00;;;;;;6181407;28;20054;-92
2024/03/20 11:45:51;;;;;;;10.73;2.67;;;18.60;1.00;;;;;;6153385;28;20058;-86
2024/03/20 11:48:55;;;;;;;8.30;2.58;;;18.70;1.00;;;;;;6157290;28;20069;-85
2024/03/20 11:51:56;;;;;;;7.65;2.78;;;19.50;1.00;;;;;;6160099;28;20061;-86
2024/03/20 11:54:58;;;;;;;12.85;3.47;;;19.30;1.00;;;;;;6176209;28;20058;-89
2024/03/20 11:57:59;;;;;;;6.22;2.72;;;19.10;1.00;;;;;;6153686;28;20065;-86
2024/03/20 12:01:02;;;;;;;9.07;3.15;;;19.10;1.00;;;;;;6146826;28;20050;-86
2024/03/20 12:04:03;;;;;;;5.43;2.53;;;18.70;1.00;;;;;;6165375;28;20069;-93
2024/03/20 12:07:04;;;;;;;9.05;3.13;;;18.80;1.00;;;;;;6172908;28;20047;-92
2024/03/20 12:10:06;;;;;;;9.32;2.67;;;19.10;1.00;;;;;;6172474;28;20077;-94
2024/03/20 12:13:06;;;;;;;9.50;3.10;;;19.20;1.00;;;;;;6182213;28;20034;-91
2024/03/20 12:16:09;;;;;;;8.82;2.90;;;19.60;1.00;;;;;;6163085;28;20515;-92
2024/03/20 12:19:10;;;;;;;9.35;3.08;;;19.50;1.00;;;;;;6167097;28;20074;-89
2024/03/20 12:22:12;;;;;;;8.02;3.05;;;19.60;1.00;;;;;;6185274;28;20105;-90
2024/03/20 12:25:12;;;;;;;9.30;3.05;;;20.10;1.00;;;;;;6174560;28;20057;-86
2024/03/20 12:28:16;;;;;;;6.60;3.45;;;20.60;1.00;;;;;;6182898;28;20054;-86
2024/03/20 12:31:22;;;;;;;7.30;2.75;;;20.30;1.00;;;;;;6215268;28;20049;-86
2024/03/20 12:34:24;;;;;;;10.77;3.05;;;20.10;1.00;;;;;;6168416;28;20057;-84
2024/03/20 12:37:26;;;;;;;6.45;2.90;;;20.70;1.00;;;;;;6196857;28;20060;-85
2024/03/20 12:40:27;;;;;;;8.45;3.17;;;21.10;1.00;;;;;;6193317;28;20137;-87
2024/03/20 12:43:28;;;;;;;6.45;3.00;;;21.20;1.00;;;;;;6180626;28;20141;-86
2024/03/20 12:46:28;;;;;;;6.13;3.03;;;21.00;1.00;;;;;;6188455;28;20050;-89
2024/03/20 12:49:29;;;;;;;5.90;2.85;;;20.80;1.00;;;;;;6208313;28;20081;-93
2024/03/20 12:52:30;;;;;;;7.95;2.95;;;21.00;1.00;;;;;;6167990;28;20054;-91
2024/03/20 12:55:32;;;;;;;12.02;3.60;;;21.10;1.00;;;;;;6171790;28;20050;-92
2024/03/20 12:58:33;;;;;;;10.18;3.50;;;21.00;1.00;;;;;;6157503;28;20752;-91
2024/03/20 13:01:33;;;;;;;9.48;3.33;;;20.90;1.00;;;;;;6174066;28;20060;-92
2024/03/20 13:04:34;;;;;;;6.72;2.80;;;20.60;1.00;;;;;;6150334;28;20121;-88
2024/03/20 13:07:36;;;;;;;7.18;3.08;;;20.90;1.00;;;;;;6174879;28;20101;-95
2024/03/20 13:10:37;;;;;;;7.97;3.05;;;20.90;1.00;;;;;;6191184;28;20058;-86
2024/03/20 13:13:38;;;;;;;12.70;4.10;;;20.90;1.00;;;;;;6153355;28;20640;-91
2024/03/20 13:16:39;;;;;;;8.77;3.20;;;20.40;1.00;;;;;;6183057;28;20539;-84
2024/03/20 13:19:39;;;;;;;8.73;3.08;;;20.60;1.00;;;;;;6166203;28;20069;-87
2024/03/20 13:22:42;;;;;;;12.20;3.17;;;21.80;1.00;;;;;;6168013;28;20062;-85
2024/03/20 13:25:43;;;;;;;9.75;2.88;;;22.40;1.00;;;;;;6156836;28;20548;-84
2024/03/20 13:28:48;;;;;;;10.85;4.18;;;22.50;1.00;;;;;;6131018;28;20064;-83
2024/03/20 13:31:49;;;;;;;10.70;3.30;;;21.90;1.00;;;;;;6132113;28;20478;-83
2024/03/20 13:34:51;;;;;;;9.38;3.40;;;21.90;1.00;;;;;;6198424;28;20054;-92
2024/03/20 13:37:56;;;;;;;8.45;3.20;;;21.60;1.00;;;;;;6163325;28;20061;-88
2024/03/20 13:44:13;;;;;;;7.88;3.00;;;22.10;1.00;;;;;;6179697;28;20395;-85
2024/03/20 13:47:15;;;;;;;8.80;3.08;;;22.30;1.00;;;;;;6177770;28;20064;-84
2024/03/20 13:53:43;;;;;;;6.25;2.50;;;22.50;1.00;;;;;;6232686;23;20063;-92
2024/03/20 13:56:44;;;;;;;6.57;2.63;;;22.50;1.00;;;;;;6175815;28;20065;-86
2024/03/20 13:59:45;;;;;;;7.82;2.80;;;22.70;1.00;;;;;;6149366;28;20055;-89
2024/03/20 14:02:48;;;;;;;10.15;3.20;;;23.20;1.00;;;;;;6151446;28;20068;-90
2024/03/20 14:05:48;;;;;;;8.48;3.13;;;23.30;1.00;;;;;;6160379;28;20059;-92
2024/03/20 14:08:49;;;;;;;7.60;3.10;;;23.20;1.00;;;;;;6235502;23;20138;-93
2024/03/20 14:11:50;;;;;;;7.07;2.88;;;22.80;1.00;;;;;;6178366;28;20072;-85
2024/03/20 14:14:51;;;;;;;7.75;2.78;;;22.50;1.00;;;;;;6146943;28;20149;-93
2024/03/20 14:17:55;;;;;;;16.83;3.17;;;22.80;1.00;;;;;;6162893;28;20054;-82
2024/03/20 14:20:56;;;;;;;8.55;2.47;;;23.10;1.00;;;;;;6158498;28;20057;-82
2024/03/20 14:23:57;;;;;;;6.68;2.50;;;22.90;1.00;;;;;;6176436;28;20551;-83
2024/03/20 14:26:58;;;;;;;4.80;2.47;;;22.50;1.00;;;;;;6162636;28;20062;-83
2024/03/20 14:29:59;;;;;;;5.45;2.35;;;21.70;1.00;;;;;;6150798;28;20177;-83
2024/03/20 14:33:00;;;;;;;6.63;2.67;;;20.90;1.00;;;;;;6171052;28;20055;-83
2024/03/20 14:36:00;;;;;;;8.57;3.20;;;21.00;1.00;;;;;;6177683;28;20134;-83
2024/03/20 14:39:01;;;;;;;8.05;2.85;;;20.90;1.00;;;;;;6155300;28;20101;-84
2024/03/20 14:42:02;;;;;;;8.18;3.03;;;21.00;1.00;;;;;;6178039;28;20525;-84
2024/03/20 14:45:03;;;;;;;6.95;2.95;;;21.10;1.00;;;;;;6137517;28;20054;-84
2024/03/20 14:48:03;;;;;;;7.00;2.95;;;20.80;1.00;;;;;;6161032;28;20085;-83
2024/03/20 14:51:04;;;;;;;9.60;2.88;;;20.60;1.00;;;;;;6138987;28;20105;-83
2024/03/20 14:54:05;;;;;;;8.57;2.85;;;20.50;1.00;;;;;;6177320;28;20551;-82
2024/03/20 14:57:09;;;;;;;8.13;3.10;;;20.30;1.00;;;;;;6155903;28;20054;-83
2024/03/20 15:00:10;;;;;;;7.80;3.15;;;20.10;1.00;;;;;;6159638;28;20062;-82
2024/03/20 15:03:11;;;;;;;10.13;3.50;;;19.90;1.00;;;;;;6155225;28;20050;-83
2024/03/20 15:06:11;;;;;;;6.68;3.03;;;19.90;1.00;;;;;;6163497;28;20062;-82
2024/03/20 15:09:12;;;;;;;10.63;3.80;;;19.70;1.00;;;;;;6144838;28;20090;-81
2024/03/20 15:12:13;;;;;;;7.28;2.67;;;19.80;1.00;;;;;;6203441;28;20112;-83
2024/03/20 15:15:14;;;;;;;10.63;3.53;;;19.80;1.00;;;;;;6180086;28;20092;-86
2024/03/20 15:18:14;;;;;;;13.30;3.53;;;19.70;1.00;;;;;;6203283;28;20457;-84
2024/03/20 15:21:15;;;;;;;15.23;3.95;;;19.60;1.00;;;;;;6161900;28;20065;-84
2024/03/20 15:24:16;;;;;;;28.08;4.28;;;19.60;1.00;;;;;;6182852;28;20060;-83
2024/03/20 15:27:19;;;;;;;8.07;3.30;;;19.60;1.00;;;;;;6162147;28;20137;-82
2024/03/20 15:30:20;;;;;;;8.65;3.42;;;19.70;1.00;;;;;;6195670;28;20066;-83
2024/03/20 15:33:21;;;;;;;8.25;3.03;;;19.60;1.00;;;;;;6178930;28;20051;-83
2024/03/20 15:36:22;;;;;;;7.40;3.00;;;19.50;1.00;;;;;;6200964;28;20088;-81
2024/03/20 15:39:22;;;;;;;11.02;3.33;;;19.30;1.00;;;;;;6161401;28;20112;-81
2024/03/20 15:42:23;;;;;;;10.63;3.28;;;19.30;1.00;;;;;;6184768;28;20061;-82
2024/03/20 15:45:24;;;;;;;9.63;3.30;;;19.40;1.00;;;;;;6144261;28;20095;-82
2024/03/20 15:48:24;;;;;;;9.18;3.58;;;19.40;1.00;;;;;;6200976;28;20525;-81
2024/03/20 15:51:26;;;;;;;10.07;3.50;;;19.30;1.00;;;;;;6161816;28;20058;-81
2024/03/20 15:54:27;;;;;;;9.73;3.05;;;19.10;1.00;;;;;;6200997;28;20049;-82
2024/03/20 15:57:28;;;;;;;14.25;3.83;;;19.00;1.00;;;;;;6161343;28;20190;-81